sensor_id;sensor_type;location;lat;lon;timestamp;temperature;humidity
4643;DHT22;2334;48.710;9.622;2023-11-19T00:00:07;7.30;99.90
4643;DHT22;2334;48.710;9.622;2023-11-19T00:02:37;7.30;99.90
4643;DHT22;2334;48.710;9.622;2023-11-19T00:05:04;7.30;99.90
4643;DHT22;2334;48.710;9.622;2023-11-19T00:07:34;7.30;99.90
4643;DHT22;2334;48.710;9.622;2023-11-19T00:10:01;7.30;99.90
4643;DHT22;2334;48.710;9.622;2023-11-19T00:12:36;7.40;99.90
4643;DHT22;2334;48.710;9.622;2023-11-19T00:15:03;7.40;99.90
4643;DHT22;2334;48.710;9.622;2023-11-19T00:17:32;7.40;99.90
4643;DHT22;2334;48.710;9.622;2023-11-19T00:19:59;7.40;99.90
4643;DHT22;2334;48.710;9.622;2023-11-19T00:22:26;7.40;99.90
4643;DHT22;2334;48.710;9.622;2023-11-19T00:24:53;7.40;99.90
4643;DHT22;2334;48.710;9.622;2023-11-19T00:27:20;7.40;99.90
4643;DHT22;2334;48.710;9.622;2023-11-19T00:29:47;7.40;99.90
4643;DHT22;2334;48.710;9.622;2023-11-19T00:32:14;7.50;99.90
4643;DHT22;2334;48.710;9.622;2023-11-19T00:34:44;7.50;99.90
4643;DHT22;2334;48.710;9.622;2023-11-19T00:37:13;7.50;99.90
4643;DHT22;2334;48.710;9.622;2023-11-19T00:39:40;7.50;99.90
4643;DHT22;2334;48.710;9.622;2023-11-19T00:42:07;7.50;99.90
4643;DHT22;2334;48.710;9.622;2023-11-19T00:44:35;7.50;99.90
4643;DHT22;2334;48.710;9.622;2023-11-19T00:47:02;7.50;99.90
4643;DHT22;2334;48.710;9.622;2023-11-19T00:49:30;7.50;99.90
4643;DHT22;2334;48.710;9.622;2023-11-19T00:51:59;7.50;99.90
4643;DHT22;2334;48.710;9.622;2023-11-19T00:54:27;7.50;99.90
4643;DHT22;2334;48.710;9.622;2023-11-19T00:56:55;7.50;99.90
4643;DHT22;2334;48.710;9.622;2023-11-19T00:59:22;7.50;99.90
4643;DHT22;2334;48.710;9.622;2023-11-19T01:01:49;7.60;99.90
4643;DHT22;2334;48.710;9.622;2023-11-19T01:04:16;7.60;99.90
4643;DHT22;2334;48.710;9.622;2023-11-19T01:06:43;7.60;99.90
4643;DHT22;2334;48.710;9.622;2023-11-19T01:09:11;7.50;99.90
4643;DHT22;2334;48.710;9.622;2023-11-19T01:11:38;7.60;99.90
4643;DHT22;2334;48.710;9.622;2023-11-19T01:14:05;7.60;99.90
4643;DHT22;2334;48.710;9.622;2023-11-19T01:16:32;7.60;99.90
4643;DHT22;2334;48.710;9.622;2023-11-19T01:18:59;7.60;99.90
4643;DHT22;2334;48.710;9.622;2023-11-19T01:21:29;7.60;99.90
4643;DHT22;2334;48.710;9.622;2023-11-19T01:23:57;7.60;99.90
4643;DHT22;2334;48.710;9.622;2023-11-19T01:26:26;7.60;99.90
4643;DHT22;2334;48.710;9.622;2023-11-19T01:28:53;7.60;99.90
4643;DHT22;2334;48.710;9.622;2023-11-19T01:31:20;7.60;99.90
4643;DHT22;2334;48.710;9.622;2023-11-19T01:33:46;7.60;99.90
4643;DHT22;2334;48.710;9.622;2023-11-19T01:36:14;7.70;99.90
4643;DHT22;2334;48.710;9.622;2023-11-19T01:38:40;7.70;99.90
4643;DHT22;2334;48.710;9.622;2023-11-19T01:41:07;7.70;99.90
4643;DHT22;2334;48.710;9.622;2023-11-19T01:43:37;7.70;99.90
4643;DHT22;2334;48.710;9.622;2023-11-19T01:46:06;7.70;99.90
4643;DHT22;2334;48.710;9.622;2023-11-19T01:48:36;7.70;99.90
4643;DHT22;2334;48.710;9.622;2023-11-19T01:51:07;7.70;99.90
4643;DHT22;2334;48.710;9.622;2023-11-19T01:53:35;7.70;99.90
4643;DHT22;2334;48.710;9.622;2023-11-19T01:56:04;7.70;99.90
4643;DHT22;2334;48.710;9.622;2023-11-19T01:58:31;7.70;99.90
4643;DHT22;2334;48.710;9.622;2023-11-19T02:00:59;7.70;99.90
4643;DHT22;2334;48.710;9.622;2023-11-19T02:03:30;7.70;99.90
4643;DHT22;2334;48.710;9.622;2023-11-19T02:05:58;7.70;99.90
4643;DHT22;2334;48.710;9.622;2023-11-19T02:08:25;7.70;99.90
4643;DHT22;2334;48.710;9.622;2023-11-19T02:10:52;7.70;99.90
4643;DHT22;2334;48.710;9.622;2023-11-19T02:13:20;7.70;99.90
4643;DHT22;2334;48.710;9.622;2023-11-19T02:15:47;7.80;99.90
4643;DHT22;2334;48.710;9.622;2023-11-19T02:18:23;7.70;99.90
4643;DHT22;2334;48.710;9.622;2023-11-19T02:20:53;7.80;99.90
4643;DHT22;2334;48.710;9.622;2023-11-19T02:23:21;7.80;99.90
4643;DHT22;2334;48.710;9.622;2023-11-19T02:26:02;7.80;99.90
4643;DHT22;2334;48.710;9.622;2023-11-19T02:28:32;7.80;99.90
4643;DHT22;2334;48.710;9.622;2023-11-19T02:31:00;7.80;99.90
4643;DHT22;2334;48.710;9.622;2023-11-19T02:33:27;7.80;99.90
4643;DHT22;2334;48.710;9.622;2023-11-19T02:35:55;7.80;99.90
4643;DHT22;2334;48.710;9.622;2023-11-19T02:38:21;7.90;99.90
4643;DHT22;2334;48.710;9.622;2023-11-19T02:40:48;7.90;99.90
4643;DHT22;2334;48.710;9.622;2023-11-19T02:43:15;7.90;99.90
4643;DHT22;2334;48.710;9.622;2023-11-19T02:45:45;7.90;99.90
4643;DHT22;2334;48.710;9.622;2023-11-19T02:48:11;7.90;99.90
4643;DHT22;2334;48.710;9.622;2023-11-19T02:50:39;7.90;99.90
4643;DHT22;2334;48.710;9.622;2023-11-19T02:53:07;7.90;99.90
4643;DHT22;2334;48.710;9.622;2023-11-19T02:55:34;7.90;99.90
4643;DHT22;2334;48.710;9.622;2023-11-19T02:58:03;7.90;99.90
4643;DHT22;2334;48.710;9.622;2023-11-19T03:00:35;8.00;99.90
4643;DHT22;2334;48.710;9.622;2023-11-19T03:03:04;8.00;99.90
4643;DHT22;2334;48.710;9.622;2023-11-19T03:05:43;8.00;99.90
4643;DHT22;2334;48.710;9.622;2023-11-19T03:08:10;8.00;99.90
4643;DHT22;2334;48.710;9.622;2023-11-19T03:10:38;8.00;99.90
4643;DHT22;2334;48.710;9.622;2023-11-19T03:13:05;8.00;99.90
4643;DHT22;2334;48.710;9.622;2023-11-19T03:15:33;8.10;99.90
4643;DHT22;2334;48.710;9.622;2023-11-19T03:18:00;8.20;99.90
4643;DHT22;2334;48.710;9.622;2023-11-19T03:20:28;8.20;99.90
4643;DHT22;2334;48.710;9.622;2023-11-19T03:22:55;8.40;99.90
4643;DHT22;2334;48.710;9.622;2023-11-19T03:25:25;8.40;99.90
4643;DHT22;2334;48.710;9.622;2023-11-19T03:27:52;8.50;99.90
4643;DHT22;2334;48.710;9.622;2023-11-19T03:30:19;8.50;99.90
4643;DHT22;2334;48.710;9.622;2023-11-19T03:32:47;8.50;99.90
4643;DHT22;2334;48.710;9.622;2023-11-19T03:35:14;8.50;99.90
4643;DHT22;2334;48.710;9.622;2023-11-19T03:37:42;8.50;99.90
4643;DHT22;2334;48.710;9.622;2023-11-19T03:40:10;8.50;99.90
4643;DHT22;2334;48.710;9.622;2023-11-19T03:42:37;8.60;99.90
4643;DHT22;2334;48.710;9.622;2023-11-19T03:45:06;8.60;99.90
4643;DHT22;2334;48.710;9.622;2023-11-19T03:47:34;8.60;99.90
4643;DHT22;2334;48.710;9.622;2023-11-19T03:50:01;8.60;99.90
4643;DHT22;2334;48.710;9.622;2023-11-19T03:52:28;8.70;99.90
4643;DHT22;2334;48.710;9.622;2023-11-19T03:54:57;8.70;99.90
4643;DHT22;2334;48.710;9.622;2023-11-19T03:57:24;8.70;99.90
4643;DHT22;2334;48.710;9.622;2023-11-19T03:59:50;8.70;99.90
4643;DHT22;2334;48.710;9.622;2023-11-19T04:02:17;8.70;99.90
4643;DHT22;2334;48.710;9.622;2023-11-19T04:04:44;8.80;99.90
4643;DHT22;2334;48.710;9.622;2023-11-19T04:07:11;8.80;99.90
4643;DHT22;2334;48.710;9.622;2023-11-19T04:09:38;8.90;99.90
4643;DHT22;2334;48.710;9.622;2023-11-19T04:12:07;8.80;99.90
4643;DHT22;2334;48.710;9.622;2023-11-19T04:14:34;8.80;99.90
4643;DHT22;2334;48.710;9.622;2023-11-19T04:17:03;8.80;99.90
4643;DHT22;2334;48.710;9.622;2023-11-19T04:19:33;8.80;99.90
4643;DHT22;2334;48.710;9.622;2023-11-19T04:21:59;8.90;99.90
4643;DHT22;2334;48.710;9.622;2023-11-19T04:24:26;8.90;99.90
4643;DHT22;2334;48.710;9.622;2023-11-19T04:26:53;9.00;99.90
4643;DHT22;2334;48.710;9.622;2023-11-19T04:29:21;8.90;99.90
4643;DHT22;2334;48.710;9.622;2023-11-19T04:31:48;8.90;99.90
4643;DHT22;2334;48.710;9.622;2023-11-19T04:34:15;8.90;99.90
4643;DHT22;2334;48.710;9.622;2023-11-19T04:36:42;8.90;99.90
4643;DHT22;2334;48.710;9.622;2023-11-19T04:39:09;8.90;99.90
4643;DHT22;2334;48.710;9.622;2023-11-19T04:41:45;8.90;99.90
4643;DHT22;2334;48.710;9.622;2023-11-19T04:44:13;8.90;99.90
4643;DHT22;2334;48.710;9.622;2023-11-19T04:46:43;9.00;99.90
4643;DHT22;2334;48.710;9.622;2023-11-19T04:49:10;9.00;99.90
4643;DHT22;2334;48.710;9.622;2023-11-19T04:51:39;9.00;99.90
4643;DHT22;2334;48.710;9.622;2023-11-19T04:54:06;9.00;99.90
4643;DHT22;2334;48.710;9.622;2023-11-19T04:56:34;9.10;99.90
4643;DHT22;2334;48.710;9.622;2023-11-19T04:59:01;9.20;99.90
4643;DHT22;2334;48.710;9.622;2023-11-19T05:01:28;9.20;99.90
4643;DHT22;2334;48.710;9.622;2023-11-19T05:03:56;9.20;99.90
4643;DHT22;2334;48.710;9.622;2023-11-19T05:06:26;9.20;99.90
4643;DHT22;2334;48.710;9.622;2023-11-19T05:08:53;9.30;99.90
4643;DHT22;2334;48.710;9.622;2023-11-19T05:11:20;9.40;99.90
4643;DHT22;2334;48.710;9.622;2023-11-19T05:13:47;9.60;99.90
4643;DHT22;2334;48.710;9.622;2023-11-19T05:16:14;9.80;99.90
4643;DHT22;2334;48.710;9.622;2023-11-19T05:18:41;9.80;99.90
4643;DHT22;2334;48.710;9.622;2023-11-19T05:21:09;10.00;99.90
4643;DHT22;2334;48.710;9.622;2023-11-19T05:23:36;9.90;99.90
4643;DHT22;2334;48.710;9.622;2023-11-19T05:26:04;9.90;99.90
4643;DHT22;2334;48.710;9.622;2023-11-19T05:28:31;10.00;99.90
4643;DHT22;2334;48.710;9.622;2023-11-19T05:30:57;10.00;99.90
4643;DHT22;2334;48.710;9.622;2023-11-19T05:33:24;10.10;99.90
4643;DHT22;2334;48.710;9.622;2023-11-19T05:35:51;10.10;99.90
4643;DHT22;2334;48.710;9.622;2023-11-19T05:38:20;10.10;99.90
4643;DHT22;2334;48.710;9.622;2023-11-19T05:40:47;10.20;99.90
4643;DHT22;2334;48.710;9.622;2023-11-19T05:43:15;10.20;99.90
4643;DHT22;2334;48.710;9.622;2023-11-19T05:45:42;10.20;99.90
4643;DHT22;2334;48.710;9.622;2023-11-19T05:48:09;10.30;99.90
4643;DHT22;2334;48.710;9.622;2023-11-19T05:50:36;10.30;99.90
4643;DHT22;2334;48.710;9.622;2023-11-19T05:53:03;10.40;99.90
4643;DHT22;2334;48.710;9.622;2023-11-19T05:55:36;10.40;99.90
4643;DHT22;2334;48.710;9.622;2023-11-19T05:58:10;10.30;99.90
4643;DHT22;2334;48.710;9.622;2023-11-19T06:00:38;10.30;99.90
4643;DHT22;2334;48.710;9.622;2023-11-19T06:03:04;10.30;99.90
4643;DHT22;2334;48.710;9.622;2023-11-19T06:05:31;10.20;99.90
4643;DHT22;2334;48.710;9.622;2023-11-19T06:07:58;10.30;99.90
4643;DHT22;2334;48.710;9.622;2023-11-19T06:10:25;10.30;99.90
4643;DHT22;2334;48.710;9.622;2023-11-19T06:12:57;10.40;99.90
4643;DHT22;2334;48.710;9.622;2023-11-19T06:15:25;10.60;99.90
4643;DHT22;2334;48.710;9.622;2023-11-19T06:17:52;10.50;99.90
4643;DHT22;2334;48.710;9.622;2023-11-19T06:20:19;10.60;99.90
4643;DHT22;2334;48.710;9.622;2023-11-19T06:22:46;10.60;99.90
4643;DHT22;2334;48.710;9.622;2023-11-19T06:25:13;10.70;99.90
4643;DHT22;2334;48.710;9.622;2023-11-19T06:27:41;10.90;99.90
4643;DHT22;2334;48.710;9.622;2023-11-19T06:30:11;11.10;99.90
4643;DHT22;2334;48.710;9.622;2023-11-19T06:32:38;11.20;99.90
4643;DHT22;2334;48.710;9.622;2023-11-19T06:35:05;11.20;99.90
4643;DHT22;2334;48.710;9.622;2023-11-19T06:37:32;11.30;99.90
4643;DHT22;2334;48.710;9.622;2023-11-19T06:39:59;11.30;99.90
4643;DHT22;2334;48.710;9.622;2023-11-19T06:42:26;11.50;99.90
4643;DHT22;2334;48.710;9.622;2023-11-19T06:44:53;11.50;99.90
4643;DHT22;2334;48.710;9.622;2023-11-19T06:47:25;11.60;99.90
4643;DHT22;2334;48.710;9.622;2023-11-19T06:49:53;11.60;99.90
4643;DHT22;2334;48.710;9.622;2023-11-19T06:52:20;11.60;99.90
4643;DHT22;2334;48.710;9.622;2023-11-19T06:54:47;11.60;99.90
4643;DHT22;2334;48.710;9.622;2023-11-19T06:57:14;11.70;99.90
4643;DHT22;2334;48.710;9.622;2023-11-19T06:59:41;11.70;99.90
4643;DHT22;2334;48.710;9.622;2023-11-19T07:02:08;11.80;99.90
4643;DHT22;2334;48.710;9.622;2023-11-19T07:04:37;11.70;99.90
4643;DHT22;2334;48.710;9.622;2023-11-19T07:07:03;11.70;99.90
4643;DHT22;2334;48.710;9.622;2023-11-19T07:09:31;11.70;99.90
4643;DHT22;2334;48.710;9.622;2023-11-19T07:11:59;11.70;99.90
4643;DHT22;2334;48.710;9.622;2023-11-19T07:14:27;11.60;99.90
4643;DHT22;2334;48.710;9.622;2023-11-19T07:16:54;11.70;99.90
4643;DHT22;2334;48.710;9.622;2023-11-19T07:19:21;11.60;99.90
4643;DHT22;2334;48.710;9.622;2023-11-19T07:21:49;11.60;99.90
4643;DHT22;2334;48.710;9.622;2023-11-19T07:24:16;11.50;99.90
4643;DHT22;2334;48.710;9.622;2023-11-19T07:26:43;11.50;99.90
4643;DHT22;2334;48.710;9.622;2023-11-19T07:29:10;11.50;99.90
4643;DHT22;2334;48.710;9.622;2023-11-19T07:31:37;11.40;99.90
4643;DHT22;2334;48.710;9.622;2023-11-19T07:34:04;11.40;99.90
4643;DHT22;2334;48.710;9.622;2023-11-19T07:36:32;11.40;99.90
4643;DHT22;2334;48.710;9.622;2023-11-19T07:39:00;11.30;99.90
4643;DHT22;2334;48.710;9.622;2023-11-19T07:41:27;11.30;99.90
4643;DHT22;2334;48.710;9.622;2023-11-19T07:43:55;11.30;99.90
4643;DHT22;2334;48.710;9.622;2023-11-19T07:46:21;11.30;99.90
4643;DHT22;2334;48.710;9.622;2023-11-19T07:48:49;11.30;99.90
4643;DHT22;2334;48.710;9.622;2023-11-19T07:51:16;11.40;99.90
4643;DHT22;2334;48.710;9.622;2023-11-19T07:53:43;11.40;99.90
4643;DHT22;2334;48.710;9.622;2023-11-19T07:56:11;11.40;99.90
4643;DHT22;2334;48.710;9.622;2023-11-19T07:58:38;11.40;99.90
4643;DHT22;2334;48.710;9.622;2023-11-19T08:01:05;11.40;99.90
4643;DHT22;2334;48.710;9.622;2023-11-19T08:03:32;11.50;99.90
4643;DHT22;2334;48.710;9.622;2023-11-19T08:06:00;11.50;99.90
4643;DHT22;2334;48.710;9.622;2023-11-19T08:08:27;11.70;99.90
4643;DHT22;2334;48.710;9.622;2023-11-19T08:10:55;11.90;99.90
4643;DHT22;2334;48.710;9.622;2023-11-19T08:13:24;12.00;99.90
4643;DHT22;2334;48.710;9.622;2023-11-19T08:15:51;12.00;99.90
4643;DHT22;2334;48.710;9.622;2023-11-19T08:18:19;12.10;99.90
4643;DHT22;2334;48.710;9.622;2023-11-19T08:20:46;12.10;99.90
4643;DHT22;2334;48.710;9.622;2023-11-19T08:23:18;12.20;99.90
4643;DHT22;2334;48.710;9.622;2023-11-19T08:25:45;12.20;99.90
4643;DHT22;2334;48.710;9.622;2023-11-19T08:28:12;12.30;99.90
4643;DHT22;2334;48.710;9.622;2023-11-19T08:30:40;12.20;99.90
4643;DHT22;2334;48.710;9.622;2023-11-19T08:33:07;12.30;99.90
4643;DHT22;2334;48.710;9.622;2023-11-19T08:35:34;12.40;99.90
4643;DHT22;2334;48.710;9.622;2023-11-19T08:38:00;12.50;99.90
4643;DHT22;2334;48.710;9.622;2023-11-19T08:40:27;12.50;99.90
4643;DHT22;2334;48.710;9.622;2023-11-19T08:42:55;12.50;99.90
4643;DHT22;2334;48.710;9.622;2023-11-19T08:45:22;12.50;99.90
4643;DHT22;2334;48.710;9.622;2023-11-19T08:47:50;12.50;99.90
4643;DHT22;2334;48.710;9.622;2023-11-19T08:50:17;12.50;99.90
4643;DHT22;2334;48.710;9.622;2023-11-19T08:52:44;12.60;99.90
4643;DHT22;2334;48.710;9.622;2023-11-19T08:55:11;12.50;99.90
4643;DHT22;2334;48.710;9.622;2023-11-19T08:57:39;12.50;99.90
4643;DHT22;2334;48.710;9.622;2023-11-19T09:00:07;12.50;99.90
4643;DHT22;2334;48.710;9.622;2023-11-19T09:02:34;12.60;99.90
4643;DHT22;2334;48.710;9.622;2023-11-19T09:05:04;12.70;99.90
4643;DHT22;2334;48.710;9.622;2023-11-19T09:07:32;12.90;99.90
4643;DHT22;2334;48.710;9.622;2023-11-19T09:09:59;13.00;99.90
4643;DHT22;2334;48.710;9.622;2023-11-19T09:12:26;13.20;99.90
4643;DHT22;2334;48.710;9.622;2023-11-19T09:14:53;13.30;99.90
4643;DHT22;2334;48.710;9.622;2023-11-19T09:17:20;13.30;99.90
4643;DHT22;2334;48.710;9.622;2023-11-19T09:19:47;13.40;99.90
4643;DHT22;2334;48.710;9.622;2023-11-19T09:22:15;13.40;99.90
4643;DHT22;2334;48.710;9.622;2023-11-19T09:24:42;13.50;99.90
4643;DHT22;2334;48.710;9.622;2023-11-19T09:27:10;13.60;99.90
4643;DHT22;2334;48.710;9.622;2023-11-19T09:29:37;13.70;99.90
4643;DHT22;2334;48.710;9.622;2023-11-19T09:32:04;14.00;99.90
4643;DHT22;2334;48.710;9.622;2023-11-19T09:34:32;14.20;99.90
4643;DHT22;2334;48.710;9.622;2023-11-19T09:36:58;14.30;99.90
4643;DHT22;2334;48.710;9.622;2023-11-19T09:39:27;14.30;99.90
4643;DHT22;2334;48.710;9.622;2023-11-19T09:41:54;14.20;99.90
4643;DHT22;2334;48.710;9.622;2023-11-19T09:44:21;14.10;99.90
4643;DHT22;2334;48.710;9.622;2023-11-19T09:46:48;14.10;99.90
4643;DHT22;2334;48.710;9.622;2023-11-19T09:49:19;14.00;99.90
4643;DHT22;2334;48.710;9.622;2023-11-19T09:51:47;13.90;99.90
4643;DHT22;2334;48.710;9.622;2023-11-19T09:54:14;13.80;99.90
4643;DHT22;2334;48.710;9.622;2023-11-19T09:56:43;13.80;99.90
4643;DHT22;2334;48.710;9.622;2023-11-19T09:59:11;13.80;99.90
4643;DHT22;2334;48.710;9.622;2023-11-19T10:01:38;14.00;99.90
4643;DHT22;2334;48.710;9.622;2023-11-19T10:04:06;14.20;99.90
4643;DHT22;2334;48.710;9.622;2023-11-19T10:06:33;14.40;99.90
4643;DHT22;2334;48.710;9.622;2023-11-19T10:09:00;14.50;99.90
4643;DHT22;2334;48.710;9.622;2023-11-19T10:11:30;14.40;99.90
4643;DHT22;2334;48.710;9.622;2023-11-19T10:13:59;14.40;99.90
4643;DHT22;2334;48.710;9.622;2023-11-19T10:16:29;14.40;99.90
4643;DHT22;2334;48.710;9.622;2023-11-19T10:18:57;14.50;99.90
4643;DHT22;2334;48.710;9.622;2023-11-19T10:21:24;14.50;99.90
4643;DHT22;2334;48.710;9.622;2023-11-19T10:23:54;14.70;99.90
4643;DHT22;2334;48.710;9.622;2023-11-19T10:26:23;14.90;99.90
4643;DHT22;2334;48.710;9.622;2023-11-19T10:28:50;15.00;99.90
4643;DHT22;2334;48.710;9.622;2023-11-19T10:31:19;14.90;99.90
4643;DHT22;2334;48.710;9.622;2023-11-19T10:33:50;15.10;99.90
4643;DHT22;2334;48.710;9.622;2023-11-19T10:36:17;15.20;99.90
4643;DHT22;2334;48.710;9.622;2023-11-19T10:38:52;15.30;99.90
4643;DHT22;2334;48.710;9.622;2023-11-19T10:41:27;15.40;99.90
4643;DHT22;2334;48.710;9.622;2023-11-19T10:43:54;15.70;99.90
4643;DHT22;2334;48.710;9.622;2023-11-19T10:46:22;15.70;99.90
4643;DHT22;2334;48.710;9.622;2023-11-19T10:48:50;15.70;99.90
4643;DHT22;2334;48.710;9.622;2023-11-19T10:51:19;15.40;99.90
4643;DHT22;2334;48.710;9.622;2023-11-19T10:53:49;15.20;99.90
4643;DHT22;2334;48.710;9.622;2023-11-19T10:56:17;15.00;99.90
4643;DHT22;2334;48.710;9.622;2023-11-19T10:58:46;14.90;99.90
4643;DHT22;2334;48.710;9.622;2023-11-19T11:01:19;14.80;99.90
4643;DHT22;2334;48.710;9.622;2023-11-19T11:03:48;14.80;99.90
4643;DHT22;2334;48.710;9.622;2023-11-19T11:06:17;14.70;99.90
4643;DHT22;2334;48.710;9.622;2023-11-19T11:08:46;14.70;99.90
4643;DHT22;2334;48.710;9.622;2023-11-19T11:11:15;14.70;99.90
4643;DHT22;2334;48.710;9.622;2023-11-19T11:13:43;14.80;99.90
4643;DHT22;2334;48.710;9.622;2023-11-19T11:16:11;15.10;99.90
4643;DHT22;2334;48.710;9.622;2023-11-19T11:18:38;15.30;99.90
4643;DHT22;2334;48.710;9.622;2023-11-19T11:21:09;15.30;99.90
4643;DHT22;2334;48.710;9.622;2023-11-19T11:27:01;15.40;99.90
4643;DHT22;2334;48.710;9.622;2023-11-19T11:29:39;15.30;99.90
4643;DHT22;2334;48.710;9.622;2023-11-19T11:32:16;15.10;99.90
4643;DHT22;2334;48.710;9.622;2023-11-19T11:35:09;15.00;99.90
4643;DHT22;2334;48.710;9.622;2023-11-19T11:37:45;15.00;99.90
4643;DHT22;2334;48.710;9.622;2023-11-19T11:40:14;15.00;99.90
4643;DHT22;2334;48.710;9.622;2023-11-19T11:42:41;15.00;99.90
4643;DHT22;2334;48.710;9.622;2023-11-19T11:45:09;14.90;99.90
4643;DHT22;2334;48.710;9.622;2023-11-19T11:48:06;14.90;99.90
4643;DHT22;2334;48.710;9.622;2023-11-19T11:50:47;15.00;99.90
4643;DHT22;2334;48.710;9.622;2023-11-19T11:53:23;14.90;99.90
4643;DHT22;2334;48.710;9.622;2023-11-19T11:55:55;14.90;99.90
4643;DHT22;2334;48.710;9.622;2023-11-19T11:58:30;14.80;99.90
4643;DHT22;2334;48.710;9.622;2023-11-19T12:00:59;14.80;99.90
4643;DHT22;2334;48.710;9.622;2023-11-19T12:03:28;14.80;99.90
4643;DHT22;2334;48.710;9.622;2023-11-19T12:05:55;14.80;99.90
4643;DHT22;2334;48.710;9.622;2023-11-19T12:08:28;14.80;99.90
4643;DHT22;2334;48.710;9.622;2023-11-19T12:10:56;14.80;99.90
4643;DHT22;2334;48.710;9.622;2023-11-19T12:13:53;14.80;99.90
4643;DHT22;2334;48.710;9.622;2023-11-19T12:16:21;14.80;99.90
4643;DHT22;2334;48.710;9.622;2023-11-19T12:18:48;14.80;99.90
4643;DHT22;2334;48.710;9.622;2023-11-19T12:21:29;14.80;99.90
4643;DHT22;2334;48.710;9.622;2023-11-19T12:23:58;14.80;99.90
4643;DHT22;2334;48.710;9.622;2023-11-19T12:26:37;14.90;99.90
4643;DHT22;2334;48.710;9.622;2023-11-19T12:29:04;15.00;99.90
4643;DHT22;2334;48.710;9.622;2023-11-19T12:31:32;15.20;99.90
4643;DHT22;2334;48.710;9.622;2023-11-19T12:33:58;15.40;99.90
4643;DHT22;2334;48.710;9.622;2023-11-19T12:36:25;15.40;99.90
4643;DHT22;2334;48.710;9.622;2023-11-19T12:38:53;15.40;99.90
4643;DHT22;2334;48.710;9.622;2023-11-19T12:41:21;15.30;99.90
4643;DHT22;2334;48.710;9.622;2023-11-19T12:43:49;15.40;99.90
4643;DHT22;2334;48.710;9.622;2023-11-19T12:46:17;15.40;99.90
4643;DHT22;2334;48.710;9.622;2023-11-19T12:48:45;15.40;99.90
4643;DHT22;2334;48.710;9.622;2023-11-19T12:51:12;15.40;99.90
4643;DHT22;2334;48.710;9.622;2023-11-19T12:53:48;15.50;99.90
4643;DHT22;2334;48.710;9.622;2023-11-19T12:56:16;15.50;99.90
4643;DHT22;2334;48.710;9.622;2023-11-19T12:58:45;15.40;99.90
4643;DHT22;2334;48.710;9.622;2023-11-19T13:01:16;15.40;99.90
4643;DHT22;2334;48.710;9.622;2023-11-19T13:03:43;15.30;99.90
4643;DHT22;2334;48.710;9.622;2023-11-19T13:06:11;15.30;99.90
4643;DHT22;2334;48.710;9.622;2023-11-19T13:08:39;15.30;99.90
4643;DHT22;2334;48.710;9.622;2023-11-19T13:11:06;15.30;99.90
4643;DHT22;2334;48.710;9.622;2023-11-19T13:13:54;15.30;99.90
4643;DHT22;2334;48.710;9.622;2023-11-19T13:16:22;15.30;99.90
4643;DHT22;2334;48.710;9.622;2023-11-19T13:18:49;15.40;99.90
4643;DHT22;2334;48.710;9.622;2023-11-19T13:21:15;15.50;99.90
4643;DHT22;2334;48.710;9.622;2023-11-19T13:23:42;15.60;99.90
4643;DHT22;2334;48.710;9.622;2023-11-19T13:26:10;15.70;99.90
4643;DHT22;2334;48.710;9.622;2023-11-19T13:28:38;15.70;99.90
4643;DHT22;2334;48.710;9.622;2023-11-19T13:31:07;15.80;99.90
4643;DHT22;2334;48.710;9.622;2023-11-19T13:33:34;15.80;99.90
4643;DHT22;2334;48.710;9.622;2023-11-19T13:36:02;15.70;99.90
4643;DHT22;2334;48.710;9.622;2023-11-19T13:38:31;15.50;99.90
4643;DHT22;2334;48.710;9.622;2023-11-19T13:40:59;15.40;99.90
4643;DHT22;2334;48.710;9.622;2023-11-19T13:43:26;15.30;99.90
4643;DHT22;2334;48.710;9.622;2023-11-19T13:45:53;15.20;99.90
4643;DHT22;2334;48.710;9.622;2023-11-19T13:48:22;15.20;99.90
4643;DHT22;2334;48.710;9.622;2023-11-19T13:50:49;15.10;99.90
4643;DHT22;2334;48.710;9.622;2023-11-19T13:53:16;15.10;99.90
4643;DHT22;2334;48.710;9.622;2023-11-19T13:55:43;15.10;99.90
4643;DHT22;2334;48.710;9.622;2023-11-19T13:58:10;15.00;99.90
4643;DHT22;2334;48.710;9.622;2023-11-19T14:00:37;15.00;99.90
4643;DHT22;2334;48.710;9.622;2023-11-19T14:03:04;15.00;99.90
4643;DHT22;2334;48.710;9.622;2023-11-19T14:05:33;15.00;99.90
4643;DHT22;2334;48.710;9.622;2023-11-19T14:08:00;14.90;99.90
4643;DHT22;2334;48.710;9.622;2023-11-19T14:10:27;14.80;99.90
4643;DHT22;2334;48.710;9.622;2023-11-19T14:12:54;14.80;99.90
4643;DHT22;2334;48.710;9.622;2023-11-19T14:15:21;14.80;99.90
4643;DHT22;2334;48.710;9.622;2023-11-19T14:17:50;14.80;99.90
4643;DHT22;2334;48.710;9.622;2023-11-19T14:20:18;14.70;99.90
4643;DHT22;2334;48.710;9.622;2023-11-19T14:22:47;14.60;99.90
4643;DHT22;2334;48.710;9.622;2023-11-19T14:25:15;14.60;99.90
4643;DHT22;2334;48.710;9.622;2023-11-19T14:27:43;14.50;99.90
4643;DHT22;2334;48.710;9.622;2023-11-19T14:30:12;14.50;99.90
4643;DHT22;2334;48.710;9.622;2023-11-19T14:32:40;14.50;99.90
4643;DHT22;2334;48.710;9.622;2023-11-19T14:35:12;14.50;99.90
4643;DHT22;2334;48.710;9.622;2023-11-19T14:37:39;14.50;99.90
4643;DHT22;2334;48.710;9.622;2023-11-19T14:40:09;14.40;99.90
4643;DHT22;2334;48.710;9.622;2023-11-19T14:42:37;14.40;99.90
4643;DHT22;2334;48.710;9.622;2023-11-19T14:45:05;14.40;99.90
4643;DHT22;2334;48.710;9.622;2023-11-19T14:47:32;14.40;99.90
4643;DHT22;2334;48.710;9.622;2023-11-19T14:49:59;14.40;99.90
4643;DHT22;2334;48.710;9.622;2023-11-19T14:52:26;14.40;99.90
4643;DHT22;2334;48.710;9.622;2023-11-19T14:54:53;14.40;99.90
4643;DHT22;2334;48.710;9.622;2023-11-19T14:57:23;14.40;99.90
4643;DHT22;2334;48.710;9.622;2023-11-19T14:59:50;14.40;99.90
4643;DHT22;2334;48.710;9.622;2023-11-19T15:02:17;14.40;99.90
4643;DHT22;2334;48.710;9.622;2023-11-19T15:04:45;14.40;99.90
4643;DHT22;2334;48.710;9.622;2023-11-19T15:07:12;14.40;99.90
4643;DHT22;2334;48.710;9.622;2023-11-19T15:09:39;14.30;99.90
4643;DHT22;2334;48.710;9.622;2023-11-19T15:12:06;14.30;99.90
4643;DHT22;2334;48.710;9.622;2023-11-19T15:14:35;14.20;99.90
4643;DHT22;2334;48.710;9.622;2023-11-19T15:17:02;14.20;99.90
4643;DHT22;2334;48.710;9.622;2023-11-19T15:19:29;14.10;99.90
4643;DHT22;2334;48.710;9.622;2023-11-19T15:21:55;14.10;99.90
4643;DHT22;2334;48.710;9.622;2023-11-19T15:24:22;14.00;99.90
4643;DHT22;2334;48.710;9.622;2023-11-19T15:26:50;14.00;99.90
4643;DHT22;2334;48.710;9.622;2023-11-19T15:29:17;13.90;99.90
4643;DHT22;2334;48.710;9.622;2023-11-19T15:31:46;13.90;99.90
4643;DHT22;2334;48.710;9.622;2023-11-19T15:34:13;14.00;99.90
4643;DHT22;2334;48.710;9.622;2023-11-19T15:36:40;13.90;99.90
4643;DHT22;2334;48.710;9.622;2023-11-19T15:39:07;13.90;99.90
4643;DHT22;2334;48.710;9.622;2023-11-19T15:41:34;13.80;99.90
4643;DHT22;2334;48.710;9.622;2023-11-19T15:44:01;13.80;99.90
4643;DHT22;2334;48.710;9.622;2023-11-19T15:46:29;13.70;99.90
4643;DHT22;2334;48.710;9.622;2023-11-19T15:48:57;13.60;99.90
4643;DHT22;2334;48.710;9.622;2023-11-19T15:51:24;13.50;99.90
4643;DHT22;2334;48.710;9.622;2023-11-19T15:53:51;13.50;99.90
4643;DHT22;2334;48.710;9.622;2023-11-19T15:56:18;13.40;99.90
4643;DHT22;2334;48.710;9.622;2023-11-19T15:58:45;13.30;99.90
4643;DHT22;2334;48.710;9.622;2023-11-19T16:01:12;13.30;99.90
4643;DHT22;2334;48.710;9.622;2023-11-19T16:03:39;13.30;99.90
4643;DHT22;2334;48.710;9.622;2023-11-19T16:06:10;13.30;99.90
4643;DHT22;2334;48.710;9.622;2023-11-19T16:08:37;13.20;99.90
4643;DHT22;2334;48.710;9.622;2023-11-19T16:11:04;13.10;99.90
4643;DHT22;2334;48.710;9.622;2023-11-19T16:13:31;13.00;99.90
4643;DHT22;2334;48.710;9.622;2023-11-19T16:15:59;13.00;99.90